Time,TemperatureF,DewpointF,PressureIn,WindDirection,WindDirectionDegrees,WindSpeedMPH,WindSpeedGustMPH,Humidity,HourlyPrecipIn,Conditions,Clouds,dailyrainin,SoftwareType,DateUTC
2013-10-11 00:01:00,52.8,50.2,30.03,NNW,335,0.0,0.0,91,0.00,,,0.00,Wunderground v.1.15,2013-10-11 04:01:00,
2013-10-11 00:02:00,52.8,50.2,30.03,NNW,335,0.0,0.0,91,0.00,,,0.00,Wunderground v.1.15,2013-10-11 04:02:00,
2013-10-11 00:04:00,52.7,50.1,30.02,NNW,333,0.0,0.0,91,0.00,,,0.00,Wunderground v.1.15,2013-10-11 04:04:00,
2013-10-11 00:09:00,52.6,50.3,30.02,NNW,333,0.0,0.0,92,0.00,,,0.00,Wunderground v.1.15,2013-10-11 04:09:00,
2013-10-11 00:13:00,52.5,50.2,30.02,West,260,0.0,0.0,92,0.00,,,0.00,Wunderground v.1.15,2013-10-11 04:13:00,
2013-10-11 00:19:00,52.5,50.2,30.02,West,260,0.0,0.0,92,0.00,,,0.00,Wunderground v.1.15,2013-10-11 04:19:00,
2013-10-11 00:25:00,52.5,50.5,30.02,West,276,0.0,0.0,93,0.00,,,0.00,Wunderground v.1.15,2013-10-11 04:25:00,
2013-10-11 00:31:00,52.8,50.8,30.02,West,281,1.0,1.0,93,0.00,,,0.00,Wunderground v.1.15,2013-10-11 04:31:00,
2013-10-11 00:36:00,53.2,50.9,30.02,West,274,0.0,1.0,92,0.00,,,0.00,Wunderground v.1.15,2013-10-11 04:36:00,
2013-10-11 00:42:00,53.5,50.9,30.02,SSW,207,0.0,0.0,91,0.00,,,0.00,Wunderground v.1.15,2013-10-11 04:42:00,
2013-10-11 00:47:00,53.6,51.0,30.02,SSW,207,0.0,0.0,91,0.00,,,0.00,Wunderground v.1.15,2013-10-11 04:47:00,
2013-10-11 00:53:00,53.8,51.2,30.01,WNW,294,0.0,0.0,91,0.00,,,0.00,Wunderground v.1.15,2013-10-11 04:53:00,
2013-10-11 00:58:00,53.9,51.3,30.01,WNW,290,0.0,0.0,91,0.00,,,0.00,Wunderground v.1.15,2013-10-11 04:58:00,
2013-10-11 01:04:00,53.7,51.1,30.01,WNW,290,0.0,0.0,91,0.00,,,0.00,Wunderground v.1.15,2013-10-11 05:04:00,
2013-10-11 01:09:00,53.6,51.0,30.01,WSW,249,0.0,0.0,91,0.00,,,0.00,Wunderground v.1.15,2013-10-11 05:09:00,
2013-10-11 01:15:00,53.6,51.3,30.01,West,274,1.0,1.0,92,0.00,,,0.00,Wunderground v.1.15,2013-10-11 05:15:00,
2013-10-11 01:20:00,53.7,51.4,30.01,West,278,0.0,1.0,92,0.00,,,0.00,Wunderground v.1.15,2013-10-11 05:20:00,
2013-10-11 01:25:00,53.8,51.5,30.01,WSW,248,0.0,0.0,92,0.00,,,0.00,Wunderground v.1.15,2013-10-11 05:25:00,
2013-10-11 01:31:00,53.9,51.3,30.00,WSW,248,0.0,0.0,91,0.00,,,0.00,Wunderground v.1.15,2013-10-11 05:31:00,
2013-10-11 01:36:00,53.8,51.2,30.00,WSW,248,0.0,0.0,91,0.00,,,0.00,Wunderground v.1.15,2013-10-11 05:36:00,
2013-10-11 01:42:00,53.7,51.4,30.00,West,260,0.0,0.0,92,0.00,,,0.00,Wunderground v.1.15,2013-10-11 05:42:00,
2013-10-11 01:48:00,53.6,51.3,30.00,West,259,0.0,1.0,92,0.00,,,0.00,Wunderground v.1.15,2013-10-11 05:48:00,
2013-10-11 01:54:00,53.4,51.1,30.00,West,263,0.0,0.0,92,0.00,,,0.00,Wunderground v.1.15,2013-10-11 05:54:00,
2013-10-11 02:00:00,53.3,51.3,30.00,SW,236,1.0,1.0,93,0.00,,,0.00,Wunderground v.1.15,2013-10-11 06:00:00,
2013-10-11 02:05:00,53.4,51.4,30.00,WSW,248,0.0,1.0,93,0.00,,,0.00,Wunderground v.1.15,2013-10-11 06:05:00,
2013-10-11 02:10:00,53.1,50.8,30.00,WSW,248,0.0,1.0,92,0.00,,,0.00,Wunderground v.1.15,2013-10-11 06:10:00,
2013-10-11 02:15:00,52.9,50.9,30.00,WSW,248,0.0,0.0,93,0.00,,,0.00,Wunderground v.1.15,2013-10-11 06:15:00,
2013-10-11 02:20:00,52.5,50.5,30.00,WSW,248,0.0,0.0,93,0.00,,,0.00,Wunderground v.1.15,2013-10-11 06:20:00,
2013-10-11 02:25:00,52.5,50.8,30.00,WSW,248,0.0,1.0,94,0.00,,,0.00,Wunderground v.1.15,2013-10-11 06:25:00,
2013-10-11 02:30:00,52.5,51.1,30.00,WSW,253,0.0,1.0,95,0.00,,,0.00,Wunderground v.1.15,2013-10-11 06:30:00,
2013-10-11 02:35:00,52.8,51.4,30.00,WSW,250,0.0,1.0,95,0.00,,,0.00,Wunderground v.1.15,2013-10-11 06:35:00,
2013-10-11 02:40:00,52.9,51.5,30.00,West,273,0.0,1.0,95,0.00,,,0.00,Wunderground v.1.15,2013-10-11 06:40:00,
2013-10-11 02:45:00,53.0,51.6,30.00,West,267,2.0,2.0,95,0.00,,,0.00,Wunderground v.1.15,2013-10-11 06:45:00,
2013-10-11 02:50:00,53.1,51.4,30.00,West,270,1.0,2.0,94,0.00,,,0.00,Wunderground v.1.15,2013-10-11 06:50:00,
2013-10-11 02:55:00,53.1,51.7,29.99,West,264,1.0,2.0,95,0.00,,,0.00,Wunderground v.1.15,2013-10-11 06:55:00,
2013-10-11 03:00:00,53.0,51.3,29.99,WSW,250,0.0,2.0,94,0.00,,,0.00,Wunderground v.1.15,2013-10-11 07:00:00,
2013-10-11 03:05:00,52.9,51.2,29.99,WSW,253,0.0,1.0,94,0.00,,,0.00,Wunderground v.1.15,2013-10-11 07:05:00,
2013-10-11 03:10:00,52.8,51.4,29.99,SSW,210,1.0,3.0,95,0.00,,,0.00,Wunderground v.1.15,2013-10-11 07:10:00,
2013-10-11 03:15:00,52.7,51.0,29.99,West,273,0.0,3.0,94,0.00,,,0.00,Wunderground v.1.15,2013-10-11 07:15:00,
2013-10-11 03:20:00,52.5,51.1,29.99,SW,228,0.0,4.0,95,0.00,,,0.00,Wunderground v.1.15,2013-10-11 07:20:00,
2013-10-11 03:25:00,52.5,51.1,29.99,WNW,291,0.0,2.0,95,0.00,,,0.00,Wunderground v.1.15,2013-10-11 07:25:00,
2013-10-11 03:30:00,52.5,51.1,29.99,WSW,256,0.0,2.0,95,0.00,,,0.00,Wunderground v.1.15,2013-10-11 07:30:00,
2013-10-11 03:35:00,52.5,51.1,29.99,West,281,1.0,2.0,95,0.00,,,0.00,Wunderground v.1.15,2013-10-11 07:35:00,
2013-10-11 03:40:00,52.5,51.1,29.99,West,263,1.0,2.0,95,0.00,,,0.00,Wunderground v.1.15,2013-10-11 07:40:00,
2013-10-11 03:45:00,52.5,51.1,29.99,NNW,328,0.0,2.0,95,0.00,,,0.00,Wunderground v.1.15,2013-10-11 07:45:00,
2013-10-11 03:50:00,52.4,51.0,29.99,NNW,329,1.0,2.0,95,0.00,,,0.00,Wunderground v.1.15,2013-10-11 07:50:00,
2013-10-11 03:55:00,52.4,51.0,29.99,SW,225,0.0,1.0,95,0.00,,,0.00,Wunderground v.1.15,2013-10-11 07:55:00,
2013-10-11 04:00:00,52.5,51.1,29.99,SW,225,0.0,1.0,95,0.00,,,0.00,Wunderground v.1.15,2013-10-11 08:00:00,
2013-10-11 04:05:00,52.4,51.0,29.99,West,281,0.0,2.0,95,0.00,,,0.00,Wunderground v.1.15,2013-10-11 08:05:00,
2013-10-11 04:10:00,52.4,51.0,29.99,SW,231,0.0,3.0,95,0.00,,,0.00,Wunderground v.1.15,2013-10-11 08:10:00,
2013-10-11 04:15:00,52.4,51.0,29.98,WSW,240,1.0,1.0,95,0.00,,,0.00,Wunderground v.1.15,2013-10-11 08:15:00,
2013-10-11 04:20:00,52.4,51.0,29.98,WNW,284,0.0,1.0,95,0.00,,,0.00,Wunderground v.1.15,2013-10-11 08:20:00,
2013-10-11 04:25:00,52.5,51.1,29.99,West,267,0.0,1.0,95,0.00,,,0.00,Wunderground v.1.15,2013-10-11 08:25:00,
2013-10-11 04:30:00,52.5,51.1,29.98,WSW,244,0.0,1.0,95,0.00,,,0.00,Wunderground v.1.15,2013-10-11 08:30:00,
2013-10-11 04:35:00,52.7,51.6,29.98,WNW,300,1.0,3.0,96,0.00,,,0.00,Wunderground v.1.15,2013-10-11 08:35:00,
2013-10-11 04:40:00,52.9,51.8,29.99,WNW,302,1.0,3.0,96,0.00,,,0.00,Wunderground v.1.15,2013-10-11 08:40:00,
2013-10-11 04:45:00,53.0,51.9,29.98,WNW,283,0.0,2.0,96,0.00,,,0.00,Wunderground v.1.15,2013-10-11 08:45:00,
2013-10-11 04:50:00,53.1,51.7,29.99,WSW,242,0.0,2.0,95,0.00,,,0.00,Wunderground v.1.15,2013-10-11 08:50:00,
2013-10-11 04:55:00,53.2,51.8,29.99,WNW,295,2.0,3.0,95,0.00,,,0.00,Wunderground v.1.15,2013-10-11 08:55:00,
2013-10-11 05:00:00,53.3,51.9,29.99,NW,309,0.0,5.0,95,0.00,,,0.00,Wunderground v.1.15,2013-10-11 09:00:00,
2013-10-11 05:05:00,53.3,51.9,29.99,WNW,293,1.0,3.0,95,0.00,,,0.00,Wunderground v.1.15,2013-10-11 09:05:00,
2013-10-11 05:10:00,53.4,52.0,29.99,North,354,1.0,3.0,95,0.00,,,0.00,Wunderground v.1.15,2013-10-11 09:10:00,
2013-10-11 05:15:00,53.4,52.0,29.99,East,84,0.0,4.0,95,0.00,,,0.00,Wunderground v.1.15,2013-10-11 09:15:00,
2013-10-11 05:20:00,53.4,52.0,29.99,West,259,0.0,4.0,95,0.00,,,0.00,Wunderground v.1.15,2013-10-11 09:20:00,
2013-10-11 05:25:00,53.4,52.0,29.98,North,359,1.0,5.0,95,0.00,,,0.00,Wunderground v.1.15,2013-10-11 09:25:00,
2013-10-11 05:30:00,53.3,51.9,29.99,NNE,12,0.0,5.0,95,0.00,,,0.00,Wunderground v.1.15,2013-10-11 09:30:00,
2013-10-11 05:35:00,53.3,51.9,29.99,WNW,288,1.0,3.0,95,0.00,,,0.00,Wunderground v.1.15,2013-10-11 09:35:00,
2013-10-11 05:40:00,53.2,51.8,29.99,ENE,58,0.0,4.0,95,0.00,,,0.00,Wunderground v.1.15,2013-10-11 09:40:00,
2013-10-11 05:45:00,53.2,51.8,29.99,WNW,289,0.0,4.0,95,0.00,,,0.00,Wunderground v.1.15,2013-10-11 09:45:00,
2013-10-11 05:50:00,53.1,51.7,29.99,NW,308,0.0,4.0,95,0.00,,,0.00,Wunderground v.1.15,2013-10-11 09:50:00,
2013-10-11 05:55:00,53.1,51.7,29.99,North,11,0.0,5.0,95,0.00,,,0.00,Wunderground v.1.15,2013-10-11 09:55:00,
2013-10-11 06:00:00,53.0,51.9,29.99,NW,312,3.0,5.0,96,0.00,,,0.00,Wunderground v.1.15,2013-10-11 10:00:00,
2013-10-11 06:05:00,53.0,51.9,29.99,West,278,0.0,3.0,96,0.00,,,0.00,Wunderground v.1.15,2013-10-11 10:05:00,
2013-10-11 06:10:00,53.0,51.9,29.99,WNW,294,1.0,3.0,96,0.00,,,0.00,Wunderground v.1.15,2013-10-11 10:10:00,
2013-10-11 06:15:00,53.1,52.0,29.99,WNW,300,0.0,3.0,96,0.00,,,0.00,Wunderground v.1.15,2013-10-11 10:15:00,
2013-10-11 06:20:00,53.0,51.9,29.99,West,279,2.0,4.0,96,0.00,,,0.00,Wunderground v.1.15,2013-10-11 10:20:00,
2013-10-11 06:25:00,53.0,51.9,29.99,West,266,1.0,2.0,96,0.00,,,0.00,Wunderground v.1.15,2013-10-11 10:25:00,
2013-10-11 06:30:00,53.0,51.9,29.99,WNW,301,0.0,3.0,96,0.00,,,0.00,Wunderground v.1.15,2013-10-11 10:30:00,
2013-10-11 06:35:00,53.1,52.0,29.99,WNW,300,3.0,5.0,96,0.00,,,0.00,Wunderground v.1.15,2013-10-11 10:35:00,
2013-10-11 06:40:00,53.1,52.0,29.99,NW,324,1.0,5.0,96,0.00,,,0.00,Wunderground v.1.15,2013-10-11 10:40:00,
2013-10-11 06:45:00,53.2,52.4,29.99,West,281,3.0,6.0,97,0.00,,,0.00,Wunderground v.1.15,2013-10-11 10:45:00,
2013-10-11 06:50:00,53.2,52.4,29.99,West,263,0.0,6.0,97,0.00,,,0.00,Wunderground v.1.15,2013-10-11 10:50:00,
2013-10-11 06:55:00,53.2,52.4,29.99,NNW,338,0.0,1.0,97,0.00,,,0.00,Wunderground v.1.15,2013-10-11 10:55:00,
2013-10-11 07:00:00,53.1,52.3,29.99,NW,308,0.0,2.0,97,0.00,,,0.00,Wunderground v.1.15,2013-10-11 11:00:00,
2013-10-11 07:05:00,53.0,52.2,29.99,South,172,0.0,6.0,97,0.00,,,0.00,Wunderground v.1.15,2013-10-11 11:05:00,
2013-10-11 07:10:00,52.9,52.1,29.99,WSW,244,3.0,6.0,97,0.00,,,0.00,Wunderground v.1.15,2013-10-11 11:10:00,
2013-10-11 07:15:00,52.9,52.1,29.99,WNW,297,0.0,4.0,97,0.00,,,0.00,Wunderground v.1.15,2013-10-11 11:15:00,
2013-10-11 07:20:00,53.0,52.2,29.99,NW,315,2.0,4.0,97,0.00,,,0.00,Wunderground v.1.15,2013-10-11 11:20:00,
2013-10-11 07:25:00,53.0,52.2,29.99,NW,305,1.0,3.0,97,0.00,,,0.00,Wunderground v.1.15,2013-10-11 11:25:00,
2013-10-11 07:30:00,53.0,52.2,30.00,WNW,290,1.0,5.0,97,0.00,,,0.00,Wunderground v.1.15,2013-10-11 11:30:00,
2013-10-11 07:35:00,53.0,52.2,30.00,North,5,1.0,4.0,97,0.00,,,0.00,Wunderground v.1.15,2013-10-11 11:35:00,
2013-10-11 07:40:00,53.0,52.2,30.00,West,276,0.0,5.0,97,0.00,,,0.00,Wunderground v.1.15,2013-10-11 11:40:00,
2013-10-11 07:45:00,53.0,52.5,30.00,NNW,338,3.0,3.0,98,0.00,,,0.00,Wunderground v.1.15,2013-10-11 11:45:00,
2013-10-11 07:50:00,53.0,52.5,30.00,NW,312,0.0,3.0,98,0.00,,,0.00,Wunderground v.1.15,2013-10-11 11:50:00,
2013-10-11 07:55:00,53.1,52.6,30.00,WNW,290,2.0,4.0,98,0.00,,,0.00,Wunderground v.1.15,2013-10-11 11:55:00,
2013-10-11 08:00:00,53.1,52.6,30.00,WNW,297,0.0,4.0,98,0.00,,,0.00,Wunderground v.1.15,2013-10-11 12:00:00,
2013-10-11 08:05:00,53.2,52.7,30.00,NW,324,1.0,5.0,98,0.00,,,0.00,Wunderground v.1.15,2013-10-11 12:05:00,
2013-10-11 08:10:00,53.2,52.7,30.00,NNE,20,1.0,5.0,98,0.00,,,0.00,Wunderground v.1.15,2013-10-11 12:10:00,
2013-10-11 08:15:00,53.3,52.8,30.00,West,260,0.0,3.0,98,0.00,,,0.00,Wunderground v.1.15,2013-10-11 12:15:00,
2013-10-11 08:20:00,53.4,52.8,30.00,WNW,290,1.0,4.0,98,0.00,,,0.00,Wunderground v.1.15,2013-10-11 12:20:00,
2013-10-11 08:25:00,53.5,52.9,30.00,NW,314,1.0,3.0,98,0.00,,,0.00,Wunderground v.1.15,2013-10-11 12:25:00,
2013-10-11 08:30:00,53.6,53.0,30.00,NW,311,2.0,4.0,98,0.00,,,0.00,Wunderground v.1.15,2013-10-11 12:30:00,
2013-10-11 08:35:00,53.7,53.1,30.00,West,281,1.0,4.0,98,0.00,,,0.00,Wunderground v.1.15,2013-10-11 12:35:00,
2013-10-11 08:40:00,53.8,53.2,30.00,NE,39,1.0,4.0,98,0.00,,,0.00,Wunderground v.1.15,2013-10-11 12:40:00,
2013-10-11 08:45:00,54.0,53.4,30.00,NNW,342,4.0,5.0,98,0.00,,,0.00,Wunderground v.1.15,2013-10-11 12:45:00,
2013-10-11 08:50:00,54.1,53.5,30.01,WNW,285,0.0,5.0,98,0.00,,,0.00,Wunderground v.1.15,2013-10-11 12:50:00,
2013-10-11 08:55:00,54.2,53.6,30.01,WNW,295,1.0,4.0,98,0.00,,,0.00,Wunderground v.1.15,2013-10-11 12:55:00,
2013-10-11 09:00:00,54.2,53.6,30.01,West,262,2.0,4.0,98,0.00,,,0.00,Wunderground v.1.15,2013-10-11 13:00:00,
2013-10-11 09:05:00,54.2,53.6,30.01,North,6,2.0,4.0,98,0.00,,,0.00,Wunderground v.1.15,2013-10-11 13:05:00,
2013-10-11 09:10:00,54.2,53.6,30.01,WNW,282,1.0,7.0,98,0.00,,,0.00,Wunderground v.1.15,2013-10-11 13:10:00,
2013-10-11 09:15:00,54.2,53.4,30.01,WSW,253,3.0,9.0,97,0.00,,,0.00,Wunderground v.1.15,2013-10-11 13:15:00,
2013-10-11 09:20:00,54.5,53.9,30.02,NNW,330,1.0,9.0,98,0.00,,,0.00,Wunderground v.1.15,2013-10-11 13:20:00,
2013-10-11 09:25:00,54.7,53.9,30.02,West,274,2.0,8.0,97,0.00,,,0.00,Wunderground v.1.15,2013-10-11 13:25:00,
2013-10-11 09:30:00,54.9,53.8,30.02,West,271,1.0,8.0,96,0.00,,,0.00,Wunderground v.1.15,2013-10-11 13:30:00,
2013-10-11 09:35:00,55.0,53.9,30.01,North,358,2.0,7.0,96,0.00,,,0.00,Wunderground v.1.15,2013-10-11 13:35:00,
2013-10-11 09:40:00,55.1,54.0,30.02,NW,324,2.0,7.0,96,0.00,,,0.00,Wunderground v.1.15,2013-10-11 13:40:00,
2013-10-11 09:45:00,55.2,53.8,30.01,West,274,3.0,7.0,95,0.00,,,0.00,Wunderground v.1.15,2013-10-11 13:45:00,
2013-10-11 09:50:00,55.4,54.0,30.02,SW,217,0.0,7.0,95,0.00,,,0.00,Wunderground v.1.15,2013-10-11 13:50:00,
2013-10-11 09:55:00,55.7,54.3,30.02,West,276,3.0,4.0,95,0.00,,,0.00,Wunderground v.1.15,2013-10-11 13:55:00,
2013-10-11 10:00:00,55.7,54.0,30.02,West,276,2.0,6.0,94,0.00,,,0.00,Wunderground v.1.15,2013-10-11 14:00:00,
2013-10-11 10:05:00,55.6,53.9,30.02,West,272,0.0,6.0,94,0.00,,,0.00,Wunderground v.1.15,2013-10-11 14:05:00,
2013-10-11 10:10:00,55.7,54.0,30.02,West,266,2.0,6.0,94,0.00,,,0.00,Wunderground v.1.15,2013-10-11 14:10:00,
2013-10-11 10:15:00,55.9,54.2,30.02,NW,306,2.0,6.0,94,0.00,,,0.00,Wunderground v.1.15,2013-10-11 14:15:00,
2013-10-11 10:20:00,56.1,54.1,30.02,WNW,287,7.0,7.0,93,0.00,,,0.00,Wunderground v.1.15,2013-10-11 14:20:00,
2013-10-11 10:25:00,56.5,54.2,30.01,NE,34,3.0,6.0,92,0.00,,,0.00,Wunderground v.1.15,2013-10-11 14:25:00,
2013-10-11 10:30:00,56.9,54.6,30.02,NW,318,1.0,6.0,92,0.00,,,0.00,Wunderground v.1.15,2013-10-11 14:30:00,
2013-10-11 10:35:00,56.8,53.9,30.02,NW,314,2.0,9.0,90,0.00,,,0.00,Wunderground v.1.15,2013-10-11 14:35:00,
2013-10-11 10:40:00,56.8,53.9,30.01,SW,224,6.0,9.0,90,0.00,,,0.00,Wunderground v.1.15,2013-10-11 14:40:00,
2013-10-11 10:45:00,56.7,53.8,30.01,SSW,211,0.0,6.0,90,0.00,,,0.00,Wunderground v.1.15,2013-10-11 14:45:00,
2013-10-11 10:50:00,57.0,54.1,30.01,West,275,2.0,6.0,90,0.00,,,0.00,Wunderground v.1.15,2013-10-11 14:50:00,
2013-10-11 10:55:00,57.5,54.6,30.01,NW,311,2.0,6.0,90,0.00,,,0.00,Wunderground v.1.15,2013-10-11 14:55:00,
2013-10-11 11:00:00,57.9,54.7,30.01,West,259,5.0,7.0,89,0.00,,,0.00,Wunderground v.1.15,2013-10-11 15:00:00,
2013-10-11 11:05:00,58.0,54.5,30.01,NW,326,1.0,4.0,88,0.00,,,0.00,Wunderground v.1.15,2013-10-11 15:05:00,
2013-10-11 11:10:00,58.0,54.5,30.01,NNW,328,3.0,6.0,88,0.00,,,0.00,Wunderground v.1.15,2013-10-11 15:10:00,
2013-10-11 11:15:00,57.8,54.3,30.01,NNE,23,1.0,5.0,88,0.00,,,0.00,Wunderground v.1.15,2013-10-11 15:15:00,
2013-10-11 11:20:00,57.6,54.4,30.01,NNW,342,3.0,5.0,89,0.00,,,0.00,Wunderground v.1.15,2013-10-11 15:20:00,
2013-10-11 11:25:00,57.4,54.2,30.01,NW,320,4.0,7.0,89,0.00,,,0.00,Wunderground v.1.15,2013-10-11 15:25:00,
2013-10-11 11:30:00,57.4,54.2,30.01,NW,323,2.0,7.0,89,0.00,,,0.00,Wunderground v.1.15,2013-10-11 15:30:00,
2013-10-11 11:35:00,57.6,54.4,30.01,WNW,285,0.0,2.0,89,0.00,,,0.00,Wunderground v.1.15,2013-10-11 15:35:00,
2013-10-11 11:40:00,57.8,54.6,30.01,NW,323,2.0,4.0,89,0.00,,,0.00,Wunderground v.1.15,2013-10-11 15:40:00,
2013-10-11 11:45:00,58.1,54.9,30.00,West,281,1.0,2.0,89,0.00,,,0.00,Wunderground v.1.15,2013-10-11 15:45:00,
2013-10-11 11:50:00,58.7,55.2,30.00,WNW,283,3.0,3.0,88,0.00,,,0.00,Wunderground v.1.15,2013-10-11 15:50:00,
2013-10-11 11:55:00,59.1,55.2,30.00,WNW,287,0.0,3.0,87,0.00,,,0.00,Wunderground v.1.15,2013-10-11 15:55:00,
2013-10-11 12:00:00,59.6,54.8,30.00,NW,319,0.0,3.0,84,0.00,,,0.00,Wunderground v.1.15,2013-10-11 16:00:00,
2013-10-11 12:05:00,59.8,54.3,30.00,WNW,302,2.0,6.0,82,0.00,,,0.00,Wunderground v.1.15,2013-10-11 16:05:00,
2013-10-11 12:10:00,60.2,54.3,30.00,NNW,335,3.0,6.0,81,0.00,,,0.00,Wunderground v.1.15,2013-10-11 16:10:00,
2013-10-11 12:15:00,60.6,54.4,30.00,NW,319,2.0,7.0,80,0.00,,,0.00,Wunderground v.1.15,2013-10-11 16:15:00,
2013-10-11 12:20:00,61.1,54.2,30.00,WSW,253,3.0,9.0,78,0.00,,,0.00,Wunderground v.1.15,2013-10-11 16:20:00,
2013-10-11 12:25:00,61.1,53.8,30.00,NW,307,2.0,8.0,77,0.00,,,0.00,Wunderground v.1.15,2013-10-11 16:25:00,
2013-10-11 12:30:00,60.9,54.0,30.00,West,259,0.0,8.0,78,0.00,,,0.00,Wunderground v.1.15,2013-10-11 16:30:00,
2013-10-11 12:35:00,60.7,53.8,30.00,SW,236,6.0,8.0,78,0.00,,,0.00,Wunderground v.1.15,2013-10-11 16:35:00,
2013-10-11 12:40:00,60.7,53.8,30.00,NE,37,4.0,9.0,78,0.00,,,0.00,Wunderground v.1.15,2013-10-11 16:40:00,
2013-10-11 12:45:00,61.3,54.4,30.00,West,271,2.0,7.0,78,0.00,,,0.00,Wunderground v.1.15,2013-10-11 16:45:00,
2013-10-11 12:50:00,61.6,54.3,30.00,West,264,1.0,8.0,77,0.00,,,0.00,Wunderground v.1.15,2013-10-11 16:50:00,
2013-10-11 12:55:00,61.4,54.1,29.99,WSW,256,3.0,9.0,77,0.00,,,0.00,Wunderground v.1.15,2013-10-11 16:55:00,
2013-10-11 13:00:00,61.7,55.1,29.99,WNW,295,2.0,9.0,79,0.00,,,0.00,Wunderground v.1.15,2013-10-11 17:00:00,
2013-10-11 13:05:00,62.0,55.1,29.99,WNW,300,2.0,6.0,78,0.00,,,0.00,Wunderground v.1.15,2013-10-11 17:05:00,
2013-10-11 13:10:00,62.0,54.7,29.99,WSW,239,3.0,7.0,77,0.00,,,0.00,Wunderground v.1.15,2013-10-11 17:10:00,
2013-10-11 13:15:00,62.0,54.7,29.99,NW,324,2.0,7.0,77,0.00,,,0.00,Wunderground v.1.15,2013-10-11 17:15:00,
2013-10-11 13:20:00,61.7,54.4,29.98,NW,315,3.0,7.0,77,0.00,,,0.00,Wunderground v.1.15,2013-10-11 17:20:00,
2013-10-11 13:25:00,61.8,54.5,29.98,WNW,297,2.0,5.0,77,0.00,,,0.00,Wunderground v.1.15,2013-10-11 17:25:00,
2013-10-11 13:30:00,61.6,54.3,29.98,West,278,1.0,9.0,77,0.00,,,0.00,Wunderground v.1.15,2013-10-11 17:30:00,
2013-10-11 13:35:00,61.5,54.6,29.98,NNW,334,3.0,5.0,78,0.00,,,0.00,Wunderground v.1.15,2013-10-11 17:35:00,
2013-10-11 13:40:00,61.7,55.1,29.97,WNW,297,2.0,5.0,79,0.00,,,0.00,Wunderground v.1.15,2013-10-11 17:40:00,
2013-10-11 13:45:00,62.2,54.9,29.97,West,281,3.0,7.0,77,0.00,,,0.00,Wunderground v.1.15,2013-10-11 17:45:00,
2013-10-11 13:50:00,62.4,55.1,29.97,West,277,6.0,7.0,77,0.00,,,0.00,Wunderground v.1.15,2013-10-11 17:50:00,
2013-10-11 13:55:00,62.5,55.5,29.96,NNE,33,4.0,5.0,78,0.00,,,0.00,Wunderground v.1.15,2013-10-11 17:55:00,
2013-10-11 14:00:00,62.4,55.8,29.96,NNE,13,2.0,5.0,79,0.00,,,0.00,Wunderground v.1.15,2013-10-11 18:00:00,
2013-10-11 14:05:00,62.7,55.7,29.96,West,260,5.0,7.0,78,0.00,,,0.00,Wunderground v.1.15,2013-10-11 18:05:00,
2013-10-11 14:11:00,62.8,55.8,29.96,West,276,1.0,2.0,78,0.00,,,0.00,Wunderground v.1.15,2013-10-11 18:11:00,
2013-10-11 14:16:00,62.8,55.8,29.96,SSW,201,2.0,6.0,78,0.00,,,0.00,Wunderground v.1.15,2013-10-11 18:16:00,
2013-10-11 14:21:00,63.3,56.7,29.95,WNW,288,3.0,5.0,79,0.00,,,0.00,Wunderground v.1.15,2013-10-11 18:21:00,
2013-10-11 14:26:00,63.6,56.6,29.95,NW,316,2.0,8.0,78,0.00,,,0.00,Wunderground v.1.15,2013-10-11 18:26:00,
2013-10-11 14:31:00,63.5,56.2,29.95,WNW,285,3.0,4.0,77,0.00,,,0.00,Wunderground v.1.15,2013-10-11 18:31:00,
2013-10-11 14:36:00,63.2,56.2,29.95,WNW,289,2.0,7.0,78,0.00,,,0.00,Wunderground v.1.15,2013-10-11 18:36:00,
2013-10-11 14:41:00,62.8,56.2,29.95,NNW,329,1.0,2.0,79,0.00,,,0.00,Wunderground v.1.15,2013-10-11 18:41:00,
2013-10-11 14:46:00,62.6,56.3,29.95,West,260,1.0,4.0,80,0.00,,,0.00,Wunderground v.1.15,2013-10-11 18:46:00,
2013-10-11 14:51:00,62.4,55.8,29.95,WNW,291,1.0,1.0,79,0.00,,,0.00,Wunderground v.1.15,2013-10-11 18:51:00,
2013-10-11 14:56:00,62.5,56.2,29.95,NNW,338,0.0,1.0,80,0.00,,,0.00,Wunderground v.1.15,2013-10-11 18:56:00,
2013-10-11 15:01:00,62.4,56.1,29.95,West,281,3.0,3.0,80,0.00,,,0.00,Wunderground v.1.15,2013-10-11 19:01:00,
2013-10-11 15:06:00,62.2,56.3,29.95,NW,310,1.0,4.0,81,0.00,,,0.00,Wunderground v.1.15,2013-10-11 19:06:00,
2013-10-11 15:11:00,62.1,56.2,29.94,WSW,238,1.0,2.0,81,0.00,,,0.00,Wunderground v.1.15,2013-10-11 19:11:00,
2013-10-11 15:16:00,62.1,56.2,29.95,WNW,297,1.0,2.0,81,0.00,,,0.00,Wunderground v.1.15,2013-10-11 19:16:00,
2013-10-11 15:21:00,62.0,56.1,29.95,West,271,3.0,3.0,81,0.00,,,0.00,Wunderground v.1.15,2013-10-11 19:21:00,
2013-10-11 15:26:00,61.9,56.0,29.94,WSW,243,5.0,6.0,81,0.00,,,0.00,Wunderground v.1.15,2013-10-11 19:26:00,
2013-10-11 15:31:00,61.8,55.9,29.94,SSW,204,0.0,2.0,81,0.00,,,0.00,Wunderground v.1.15,2013-10-11 19:31:00,
2013-10-11 15:36:00,61.7,56.1,29.94,WNW,301,2.0,6.0,82,0.00,,,0.00,Wunderground v.1.15,2013-10-11 19:36:00,
2013-10-11 15:41:00,61.7,56.5,29.95,NE,39,2.0,2.0,83,0.00,,,0.00,Wunderground v.1.15,2013-10-11 19:41:00,
2013-10-11 15:46:00,61.4,56.5,29.95,North,360,1.0,7.0,84,0.00,,,0.00,Wunderground v.1.15,2013-10-11 19:46:00,
2013-10-11 15:51:00,60.9,56.7,29.95,NE,44,3.0,3.0,86,0.00,,,0.00,Wunderground v.1.15,2013-10-11 19:51:00,
2013-10-11 15:56:00,60.5,56.6,29.95,NNW,348,2.0,7.0,87,0.00,,,0.00,Wunderground v.1.15,2013-10-11 19:56:00,
2013-10-11 16:01:00,60.3,56.7,29.95,NE,49,1.0,2.0,88,0.00,,,0.00,Wunderground v.1.15,2013-10-11 20:01:00,
2013-10-11 16:06:00,60.1,56.5,29.95,North,9,1.0,7.0,88,0.00,,,0.00,Wunderground v.1.15,2013-10-11 20:06:00,
2013-10-11 16:11:00,60.0,56.4,29.95,NE,51,1.0,2.0,88,0.00,,,0.00,Wunderground v.1.15,2013-10-11 20:11:00,
2013-10-11 16:16:00,60.0,56.4,29.95,NW,318,1.0,3.0,88,0.00,,,0.00,Wunderground v.1.15,2013-10-11 20:16:00,
2013-10-11 16:21:00,60.1,56.5,29.95,NNE,25,1.0,1.0,88,0.00,,,0.00,Wunderground v.1.15,2013-10-11 20:21:00,
2013-10-11 16:26:00,60.1,56.5,29.95,WNW,295,0.0,8.0,88,0.00,,,0.00,Wunderground v.1.15,2013-10-11 20:26:00,
2013-10-11 16:31:00,59.8,56.9,29.95,North,354,1.0,2.0,90,0.00,,,0.00,Wunderground v.1.15,2013-10-11 20:31:00,
2013-10-11 16:36:00,59.5,56.9,29.95,NNE,30,4.0,5.0,91,0.00,,,0.00,Wunderground v.1.15,2013-10-11 20:36:00,
2013-10-11 16:41:00,59.2,56.6,29.95,NNW,339,4.0,5.0,91,0.00,,,0.00,Wunderground v.1.15,2013-10-11 20:41:00,
2013-10-11 16:46:00,59.0,56.7,29.95,NW,326,0.0,5.0,92,0.00,,,0.00,Wunderground v.1.15,2013-10-11 20:46:00,
2013-10-11 16:51:00,58.9,56.6,29.95,West,274,3.0,4.0,92,0.00,,,0.00,Wunderground v.1.15,2013-10-11 20:51:00,
2013-10-11 16:56:00,58.7,56.7,29.96,NNE,16,0.0,8.0,93,0.00,,,0.00,Wunderground v.1.15,2013-10-11 20:56:00,
2013-10-11 17:01:00,58.5,56.8,29.96,NW,314,1.0,4.0,94,0.00,,,0.00,Wunderground v.1.15,2013-10-11 21:01:00,
2013-10-11 17:06:00,58.3,56.9,29.96,North,349,0.0,5.0,95,0.00,,,0.00,Wunderground v.1.15,2013-10-11 21:06:00,
2013-10-11 17:11:00,58.1,56.7,29.96,NNE,18,0.0,2.0,95,0.00,,,0.00,Wunderground v.1.15,2013-10-11 21:11:00,
2013-10-11 17:16:00,57.9,56.5,29.95,WNW,293,3.0,8.0,95,0.00,,,0.00,Wunderground v.1.15,2013-10-11 21:16:00,
2013-10-11 17:21:00,57.8,56.7,29.96,NNW,332,3.0,4.0,96,0.00,,,0.00,Wunderground v.1.15,2013-10-11 21:21:00,
2013-10-11 17:26:00,57.6,56.5,29.96,North,358,2.0,4.0,96,0.00,,,0.00,Wunderground v.1.15,2013-10-11 21:26:00,
2013-10-11 17:31:00,57.5,56.7,29.96,NNE,26,2.0,4.0,97,0.00,,,0.00,Wunderground v.1.15,2013-10-11 21:31:00,
2013-10-11 17:36:00,57.5,56.7,29.96,North,356,0.0,4.0,97,0.00,,,0.00,Wunderground v.1.15,2013-10-11 21:36:00,
2013-10-11 17:41:00,57.4,56.6,29.96,NW,326,1.0,1.0,97,0.00,,,0.00,Wunderground v.1.15,2013-10-11 21:41:00,
2013-10-11 17:46:00,57.4,56.6,29.96,NNW,348,2.0,3.0,97,0.00,,,0.00,Wunderground v.1.15,2013-10-11 21:46:00,
2013-10-11 17:51:00,57.3,56.7,29.97,NW,322,1.0,2.0,98,0.00,,,0.01,Wunderground v.1.15,2013-10-11 21:51:00,
2013-10-11 17:56:00,57.3,56.7,29.97,WNW,297,1.0,2.0,98,0.00,,,0.01,Wunderground v.1.15,2013-10-11 21:56:00,
2013-10-11 18:01:00,57.2,56.6,29.97,NW,322,3.0,3.0,98,0.00,,,0.01,Wunderground v.1.15,2013-10-11 22:01:00,
2013-10-11 18:06:00,57.1,56.5,29.97,North,356,3.0,5.0,98,0.00,,,0.01,Wunderground v.1.15,2013-10-11 22:06:00,
2013-10-11 18:11:00,57.1,56.5,29.97,North,349,3.0,4.0,98,0.00,,,0.01,Wunderground v.1.15,2013-10-11 22:11:00,
2013-10-11 18:16:00,57.0,56.4,29.97,NNW,340,2.0,6.0,98,0.00,,,0.01,Wunderground v.1.15,2013-10-11 22:16:00,
2013-10-11 18:21:00,57.0,56.4,29.97,NNE,16,2.0,2.0,98,0.00,,,0.01,Wunderground v.1.15,2013-10-11 22:21:00,
2013-10-11 18:26:00,56.9,56.3,29.97,NW,307,2.0,3.0,98,0.00,,,0.01,Wunderground v.1.15,2013-10-11 22:26:00,
2013-10-11 18:31:00,56.8,56.2,29.97,WNW,302,1.0,2.0,98,0.00,,,0.01,Wunderground v.1.15,2013-10-11 22:31:00,
2013-10-11 18:36:00,56.8,56.2,29.97,North,9,2.0,3.0,98,0.00,,,0.01,Wunderground v.1.15,2013-10-11 22:36:00,
2013-10-11 18:41:00,56.8,56.2,29.97,WNW,285,2.0,2.0,98,0.00,,,0.01,Wunderground v.1.15,2013-10-11 22:41:00,
2013-10-11 18:46:00,56.7,56.1,29.97,SE,138,0.0,4.0,98,0.00,,,0.01,Wunderground v.1.15,2013-10-11 22:46:00,
2013-10-11 18:51:00,56.7,56.4,29.97,ENE,65,0.0,2.0,99,0.00,,,0.01,Wunderground v.1.15,2013-10-11 22:51:00,
2013-10-11 18:56:00,56.7,56.4,29.98,NE,48,0.0,2.0,99,0.00,,,0.01,Wunderground v.1.15,2013-10-11 22:56:00,
2013-10-11 19:01:00,56.7,56.4,29.98,North,6,2.0,2.0,99,0.00,,,0.02,Wunderground v.1.15,2013-10-11 23:01:00,
2013-10-11 19:06:00,56.5,55.9,29.98,NW,316,2.0,7.0,98,0.00,,,0.02,Wunderground v.1.15,2013-10-11 23:06:00,
2013-10-11 19:11:00,56.3,55.7,29.98,WNW,302,2.0,3.0,98,0.00,,,0.02,Wunderground v.1.15,2013-10-11 23:11:00,
2013-10-11 19:16:00,56.1,55.8,29.98,NW,323,0.0,5.0,99,0.00,,,0.02,Wunderground v.1.15,2013-10-11 23:16:00,
2013-10-11 19:21:00,56.0,55.7,29.98,NNW,346,5.0,7.0,99,0.00,,,0.03,Wunderground v.1.15,2013-10-11 23:21:00,
2013-10-11 19:26:00,55.7,55.1,29.98,WNW,293,2.0,8.0,98,0.00,,,0.03,Wunderground v.1.15,2013-10-11 23:26:00,
2013-10-11 19:31:00,55.5,54.9,29.99,NE,43,3.0,4.0,98,0.00,,,0.03,Wunderground v.1.15,2013-10-11 23:31:00,
2013-10-11 19:36:00,55.2,54.6,29.99,North,360,6.0,12.0,98,0.00,,,0.03,Wunderground v.1.15,2013-10-11 23:36:00,
2013-10-11 19:41:00,55.0,54.7,29.99,NNW,335,3.0,4.0,99,0.00,,,0.03,Wunderground v.1.15,2013-10-11 23:41:00,
2013-10-11 19:46:00,54.9,54.6,29.99,NW,323,1.0,5.0,99,0.00,,,0.03,Wunderground v.1.15,2013-10-11 23:46:00,
2013-10-11 19:51:00,54.8,54.5,29.99,NW,325,0.0,2.0,99,0.00,,,0.03,Wunderground v.1.15,2013-10-11 23:51:00,
2013-10-11 19:56:00,54.8,54.5,29.99,NW,305,0.0,4.0,99,0.00,,,0.03,Wunderground v.1.15,2013-10-11 23:56:00,
2013-10-11 20:01:00,54.6,54.3,29.99,NNE,23,2.0,3.0,99,0.00,,,0.03,Wunderground v.1.15,2013-10-12 00:01:00,
2013-10-11 20:06:00,54.6,54.3,30.00,NW,319,2.0,3.0,99,0.00,,,0.03,Wunderground v.1.15,2013-10-12 00:06:00,
2013-10-11 20:11:00,54.5,54.2,29.99,North,349,2.0,3.0,99,0.00,,,0.03,Wunderground v.1.15,2013-10-12 00:11:00,
2013-10-11 20:16:00,54.5,54.2,29.99,NW,321,0.0,8.0,99,0.00,,,0.03,Wunderground v.1.15,2013-10-12 00:16:00,
2013-10-11 20:21:00,54.5,54.2,29.99,North,6,0.0,2.0,99,0.00,,,0.03,Wunderground v.1.15,2013-10-12 00:21:00,
2013-10-11 20:26:00,54.4,54.1,29.99,North,8,2.0,3.0,99,0.00,,,0.03,Wunderground v.1.15,2013-10-12 00:26:00,
2013-10-11 20:31:00,54.4,54.1,29.99,WNW,293,1.0,1.0,99,0.00,,,0.03,Wunderground v.1.15,2013-10-12 00:31:00,
2013-10-11 20:36:00,54.4,54.1,29.99,NNW,340,0.0,2.0,99,0.00,,,0.03,Wunderground v.1.15,2013-10-12 00:36:00,
2013-10-11 20:41:00,54.4,54.1,29.99,NNW,334,1.0,1.0,99,0.00,,,0.03,Wunderground v.1.15,2013-10-12 00:41:00,
2013-10-11 20:46:00,54.4,54.1,29.99,NNW,335,2.0,2.0,99,0.00,,,0.04,Wunderground v.1.15,2013-10-12 00:46:00,
2013-10-11 20:51:00,54.4,54.1,30.00,NNW,333,1.0,2.0,99,0.00,,,0.04,Wunderground v.1.15,2013-10-12 00:51:00,
2013-10-11 20:56:00,54.2,53.9,30.00,NNW,328,2.0,6.0,99,0.00,,,0.04,Wunderground v.1.15,2013-10-12 00:56:00,
2013-10-11 21:01:00,54.1,53.8,30.00,NW,326,0.0,2.0,99,0.00,,,0.04,Wunderground v.1.15,2013-10-12 01:01:00,
2013-10-11 21:06:00,53.9,53.6,30.00,North,352,3.0,6.0,99,0.00,,,0.04,Wunderground v.1.15,2013-10-12 01:06:00,
2013-10-11 21:11:00,53.8,53.5,30.00,North,358,1.0,2.0,99,0.00,,,0.04,Wunderground v.1.15,2013-10-12 01:11:00,
2013-10-11 21:16:00,53.7,53.4,30.00,NE,54,2.0,3.0,99,0.00,,,0.04,Wunderground v.1.15,2013-10-12 01:16:00,
2013-10-11 21:21:00,53.7,53.4,30.00,North,354,0.0,2.0,99,0.00,,,0.04,Wunderground v.1.15,2013-10-12 01:21:00,
2013-10-11 21:26:00,53.7,53.4,30.00,North,360,0.0,2.0,99,0.00,,,0.04,Wunderground v.1.15,2013-10-12 01:26:00,
2013-10-11 21:31:00,53.6,53.3,30.00,NNW,347,0.0,1.0,99,0.00,,,0.04,Wunderground v.1.15,2013-10-12 01:31:00,
2013-10-11 21:36:00,53.6,53.3,30.00,NE,44,3.0,3.0,99,0.00,,,0.04,Wunderground v.1.15,2013-10-12 01:36:00,
2013-10-11 21:41:00,53.6,53.3,30.00,NNW,328,1.0,1.0,99,0.00,,,0.04,Wunderground v.1.15,2013-10-12 01:41:00,
2013-10-11 21:46:00,53.7,53.7,29.99,NNW,339,1.0,2.0,100,0.00,,,0.04,Wunderground v.1.15,2013-10-12 01:46:00,
2013-10-11 21:51:00,53.6,53.6,29.99,NNW,338,0.0,1.0,100,0.00,,,0.04,Wunderground v.1.15,2013-10-12 01:51:00,
2013-10-11 21:56:00,53.6,53.6,29.99,WNW,300,0.0,2.0,100,0.00,,,0.04,Wunderground v.1.15,2013-10-12 01:56:00,
2013-10-11 22:01:00,53.6,53.6,29.99,NW,323,0.0,0.0,100,0.00,,,0.04,Wunderground v.1.15,2013-10-12 02:01:00,
2013-10-11 22:06:00,53.5,53.5,30.00,NNW,340,1.0,1.0,100,0.00,,,0.04,Wunderground v.1.15,2013-10-12 02:06:00,
2013-10-11 22:11:00,53.5,53.5,30.00,NNW,338,1.0,1.0,100,0.00,,,0.04,Wunderground v.1.15,2013-10-12 02:11:00,
2013-10-11 22:16:00,53.4,53.1,30.00,NW,318,1.0,4.0,99,0.00,,,0.04,Wunderground v.1.15,2013-10-12 02:16:00,
2013-10-11 22:21:00,53.2,52.9,30.00,NW,322,0.0,3.0,99,0.00,,,0.04,Wunderground v.1.15,2013-10-12 02:21:00,
2013-10-11 22:26:00,53.1,52.8,30.00,NNE,20,0.0,3.0,99,0.00,,,0.04,Wunderground v.1.15,2013-10-12 02:26:00,
2013-10-11 22:31:00,53.1,53.1,30.00,NW,308,0.0,0.0,100,0.00,,,0.04,Wunderground v.1.15,2013-10-12 02:31:00,
2013-10-11 22:36:00,53.1,53.1,30.00,North,350,1.0,3.0,100,0.00,,,0.04,Wunderground v.1.15,2013-10-12 02:36:00,
2013-10-11 22:41:00,53.1,53.1,30.00,NNW,328,2.0,2.0,100,0.00,,,0.04,Wunderground v.1.15,2013-10-12 02:41:00,
2013-10-11 22:46:00,53.1,53.1,30.00,North,350,0.0,2.0,100,0.00,,,0.04,Wunderground v.1.15,2013-10-12 02:46:00,
2013-10-11 22:51:00,53.2,53.2,30.00,NNW,343,0.0,1.0,100,0.00,,,0.04,Wunderground v.1.15,2013-10-12 02:51:00,
2013-10-11 22:56:00,53.2,53.2,30.00,NW,314,0.0,2.0,100,0.00,,,0.04,Wunderground v.1.15,2013-10-12 02:56:00,
2013-10-11 23:01:00,53.1,53.1,30.00,North,350,1.0,1.0,100,0.00,,,0.04,Wunderground v.1.15,2013-10-12 03:01:00,
2013-10-11 23:06:00,53.1,53.1,30.00,North,356,1.0,2.0,100,0.00,,,0.04,Wunderground v.1.15,2013-10-12 03:06:00,
2013-10-11 23:11:00,53.1,53.1,30.00,NW,307,2.0,2.0,100,0.00,,,0.04,Wunderground v.1.15,2013-10-12 03:11:00,
2013-10-11 23:16:00,53.1,53.1,30.00,North,11,0.0,2.0,100,0.00,,,0.04,Wunderground v.1.15,2013-10-12 03:16:00,
2013-10-11 23:21:00,53.1,53.1,30.00,NW,305,1.0,1.0,100,0.00,,,0.04,Wunderground v.1.15,2013-10-12 03:21:00,
2013-10-11 23:26:00,53.0,53.0,29.99,North,356,1.0,1.0,100,0.00,,,0.04,Wunderground v.1.15,2013-10-12 03:26:00,
2013-10-11 23:31:00,53.1,53.1,30.00,NE,44,0.0,0.0,100,0.00,,,0.04,Wunderground v.1.15,2013-10-12 03:31:00,
2013-10-11 23:36:00,53.0,53.0,30.00,NNW,342,0.0,1.0,100,0.00,,,0.04,Wunderground v.1.15,2013-10-12 03:36:00,
2013-10-11 23:41:00,53.0,53.0,30.00,NW,319,1.0,1.0,100,0.00,,,0.04,Wunderground v.1.15,2013-10-12 03:41:00,
2013-10-11 23:46:00,53.0,53.0,30.00,North,352,0.0,3.0,100,0.00,,,0.04,Wunderground v.1.15,2013-10-12 03:46:00,
2013-10-11 23:51:00,53.0,53.0,30.00,NW,314,0.0,0.0,100,0.00,,,0.04,Wunderground v.1.15,2013-10-12 03:51:00,
2013-10-11 23:56:00,53.0,53.0,30.00,North,6,1.0,3.0,100,0.00,,,0.04,Wunderground v.1.15,2013-10-12 03:56:00,